sensor_id;sensor_type;location;lat;lon;timestamp;temperature;humidity
31309;DHT22;17936;52.446;10.840;2023-02-15T00:01:40;0.50;99.90
31309;DHT22;17936;52.446;10.840;2023-02-15T00:04:07;0.40;99.90
31309;DHT22;17936;52.446;10.840;2023-02-15T00:06:32;0.50;99.90
31309;DHT22;17936;52.446;10.840;2023-02-15T00:08:58;0.30;99.90
31309;DHT22;17936;52.446;10.840;2023-02-15T00:11:25;0.40;99.90
31309;DHT22;17936;52.446;10.840;2023-02-15T00:14:13;0.40;99.90
31309;DHT22;17936;52.446;10.840;2023-02-15T00:16:40;0.60;99.90
31309;DHT22;17936;52.446;10.840;2023-02-15T00:19:06;0.60;99.90
31309;DHT22;17936;52.446;10.840;2023-02-15T00:21:33;0.50;99.90
31309;DHT22;17936;52.446;10.840;2023-02-15T00:24:00;0.70;99.90
31309;DHT22;17936;52.446;10.840;2023-02-15T00:26:26;1.40;99.90
31309;DHT22;17936;52.446;10.840;2023-02-15T00:28:52;0.50;99.90
31309;DHT22;17936;52.446;10.840;2023-02-15T00:31:19;0.30;99.90
31309;DHT22;17936;52.446;10.840;2023-02-15T00:33:45;0.10;99.90
31309;DHT22;17936;52.446;10.840;2023-02-15T00:36:10;0.20;99.90
31309;DHT22;17936;52.446;10.840;2023-02-15T00:38:36;0.10;99.90
31309;DHT22;17936;52.446;10.840;2023-02-15T00:41:04;0.00;99.90
31309;DHT22;17936;52.446;10.840;2023-02-15T00:43:31;0.00;99.90
31309;DHT22;17936;52.446;10.840;2023-02-15T00:45:57;0.00;99.90
31309;DHT22;17936;52.446;10.840;2023-02-15T00:48:22;0.00;99.90
31309;DHT22;17936;52.446;10.840;2023-02-15T00:50:54;0.00;99.90
31309;DHT22;17936;52.446;10.840;2023-02-15T00:53:20;0.00;99.90
31309;DHT22;17936;52.446;10.840;2023-02-15T00:55:46;0.20;99.90
31309;DHT22;17936;52.446;10.840;2023-02-15T00:58:13;-0.30;99.90
31309;DHT22;17936;52.446;10.840;2023-02-15T01:00:40;-0.30;99.90
31309;DHT22;17936;52.446;10.840;2023-02-15T01:03:06;0.20;99.90
31309;DHT22;17936;52.446;10.840;2023-02-15T01:05:32;0.50;99.90
31309;DHT22;17936;52.446;10.840;2023-02-15T01:07:58;-0.30;99.90
31309;DHT22;17936;52.446;10.840;2023-02-15T01:10:25;-0.20;99.90
31309;DHT22;17936;52.446;10.840;2023-02-15T01:12:51;-0.20;99.90
31309;DHT22;17936;52.446;10.840;2023-02-15T01:15:17;0.10;99.90
31309;DHT22;17936;52.446;10.840;2023-02-15T01:17:43;-0.20;99.90
31309;DHT22;17936;52.446;10.840;2023-02-15T01:20:11;-0.10;99.90
31309;DHT22;17936;52.446;10.840;2023-02-15T01:22:37;-0.30;99.90
31309;DHT22;17936;52.446;10.840;2023-02-15T01:25:03;-0.30;99.90
31309;DHT22;17936;52.446;10.840;2023-02-15T01:27:28;-0.40;99.90
31309;DHT22;17936;52.446;10.840;2023-02-15T01:29:56;-0.50;99.90
31309;DHT22;17936;52.446;10.840;2023-02-15T01:32:21;-0.50;99.90
31309;DHT22;17936;52.446;10.840;2023-02-15T01:34:47;-0.50;99.90
31309;DHT22;17936;52.446;10.840;2023-02-15T01:37:13;-0.40;99.90
31309;DHT22;17936;52.446;10.840;2023-02-15T01:39:38;-0.60;99.90
31309;DHT22;17936;52.446;10.840;2023-02-15T01:42:04;-0.50;99.90
31309;DHT22;17936;52.446;10.840;2023-02-15T01:44:50;-0.30;99.90
31309;DHT22;17936;52.446;10.840;2023-02-15T01:50:18;-0.30;99.90
31309;DHT22;17936;52.446;10.840;2023-02-15T01:52:56;0.00;99.90
31309;DHT22;17936;52.446;10.840;2023-02-15T01:55:25;0.10;99.90
31309;DHT22;17936;52.446;10.840;2023-02-15T01:57:52;-0.30;99.90
31309;DHT22;17936;52.446;10.840;2023-02-15T02:00:18;0.40;99.90
31309;DHT22;17936;52.446;10.840;2023-02-15T02:02:46;0.00;99.90
31309;DHT22;17936;52.446;10.840;2023-02-15T02:05:13;-0.40;99.90
31309;DHT22;17936;52.446;10.840;2023-02-15T02:07:41;-0.40;99.90
31309;DHT22;17936;52.446;10.840;2023-02-15T02:10:10;-0.30;99.90
31309;DHT22;17936;52.446;10.840;2023-02-15T02:12:37;-0.50;99.90
31309;DHT22;17936;52.446;10.840;2023-02-15T02:15:04;-0.60;99.90
31309;DHT22;17936;52.446;10.840;2023-02-15T02:23:58;-0.50;99.90
31309;DHT22;17936;52.446;10.840;2023-02-15T02:26:57;-0.30;99.90
31309;DHT22;17936;52.446;10.840;2023-02-15T02:29:52;-0.30;99.90
31309;DHT22;17936;52.446;10.840;2023-02-15T02:32:51;-0.30;99.90
31309;DHT22;17936;52.446;10.840;2023-02-15T02:38:28;-0.20;99.90
31309;DHT22;17936;52.446;10.840;2023-02-15T02:43:52;-0.50;99.90
31309;DHT22;17936;52.446;10.840;2023-02-15T02:46:20;-0.10;99.90
31309;DHT22;17936;52.446;10.840;2023-02-15T02:48:48;-0.20;99.90
31309;DHT22;17936;52.446;10.840;2023-02-15T02:51:14;-0.10;99.90
31309;DHT22;17936;52.446;10.840;2023-02-15T02:53:50;-0.10;99.90
31309;DHT22;17936;52.446;10.840;2023-02-15T02:56:30;-0.30;99.90
31309;DHT22;17936;52.446;10.840;2023-02-15T02:59:14;-0.50;99.90
31309;DHT22;17936;52.446;10.840;2023-02-15T03:01:50;-0.50;99.90
31309;DHT22;17936;52.446;10.840;2023-02-15T03:04:30;-0.70;99.90
31309;DHT22;17936;52.446;10.840;2023-02-15T03:07:00;-0.90;99.90
31309;DHT22;17936;52.446;10.840;2023-02-15T03:09:37;-1.00;99.90
31309;DHT22;17936;52.446;10.840;2023-02-15T03:12:15;-1.00;99.90
31309;DHT22;17936;52.446;10.840;2023-02-15T03:14:43;-1.20;99.90
31309;DHT22;17936;52.446;10.840;2023-02-15T03:17:11;-1.20;99.90
31309;DHT22;17936;52.446;10.840;2023-02-15T03:19:39;-0.80;99.90
31309;DHT22;17936;52.446;10.840;2023-02-15T03:22:15;-1.00;99.90
31309;DHT22;17936;52.446;10.840;2023-02-15T03:24:53;-1.20;99.90
31309;DHT22;17936;52.446;10.840;2023-02-15T03:27:27;-1.10;99.90
31309;DHT22;17936;52.446;10.840;2023-02-15T03:29:56;-1.20;99.90
31309;DHT22;17936;52.446;10.840;2023-02-15T03:32:23;-1.30;99.90
31309;DHT22;17936;52.446;10.840;2023-02-15T03:34:50;-1.00;99.90
31309;DHT22;17936;52.446;10.840;2023-02-15T03:37:26;-1.00;99.90
31309;DHT22;17936;52.446;10.840;2023-02-15T03:40:00;-1.00;99.90
31309;DHT22;17936;52.446;10.840;2023-02-15T03:42:50;-1.30;99.90
31309;DHT22;17936;52.446;10.840;2023-02-15T03:45:25;-1.20;99.90
31309;DHT22;17936;52.446;10.840;2023-02-15T03:47:54;-1.10;99.90
31309;DHT22;17936;52.446;10.840;2023-02-15T03:50:33;-0.90;99.90
31309;DHT22;17936;52.446;10.840;2023-02-15T03:53:21;-0.90;99.90
31309;DHT22;17936;52.446;10.840;2023-02-15T03:55:57;-0.90;99.90
31309;DHT22;17936;52.446;10.840;2023-02-15T03:58:23;-0.90;99.90
31309;DHT22;17936;52.446;10.840;2023-02-15T04:04:38;-0.90;99.90
31309;DHT22;17936;52.446;10.840;2023-02-15T04:07:06;-0.90;99.90
31309;DHT22;17936;52.446;10.840;2023-02-15T04:09:32;-1.20;99.90
31309;DHT22;17936;52.446;10.840;2023-02-15T04:12:17;-1.30;99.90
31309;DHT22;17936;52.446;10.840;2023-02-15T04:14:43;-1.20;99.90
31309;DHT22;17936;52.446;10.840;2023-02-15T04:17:27;-1.40;99.90
31309;DHT22;17936;52.446;10.840;2023-02-15T04:19:53;-1.50;99.90
31309;DHT22;17936;52.446;10.840;2023-02-15T04:22:37;-1.70;99.90
31309;DHT22;17936;52.446;10.840;2023-02-15T04:25:22;-1.50;99.90
31309;DHT22;17936;52.446;10.840;2023-02-15T04:27:50;-1.50;99.90
31309;DHT22;17936;52.446;10.840;2023-02-15T04:30:19;-1.50;99.90
31309;DHT22;17936;52.446;10.840;2023-02-15T04:32:45;-0.70;99.90
31309;DHT22;17936;52.446;10.840;2023-02-15T04:35:11;-1.00;99.90
31309;DHT22;17936;52.446;10.840;2023-02-15T04:37:38;-0.90;99.90
31309;DHT22;17936;52.446;10.840;2023-02-15T04:40:05;-1.10;99.90
31309;DHT22;17936;52.446;10.840;2023-02-15T04:42:31;-1.20;99.90
31309;DHT22;17936;52.446;10.840;2023-02-15T04:44:56;-1.40;99.90
31309;DHT22;17936;52.446;10.840;2023-02-15T04:47:22;-1.30;99.90
31309;DHT22;17936;52.446;10.840;2023-02-15T04:49:48;-1.50;99.90
31309;DHT22;17936;52.446;10.840;2023-02-15T04:52:13;-1.70;99.90
31309;DHT22;17936;52.446;10.840;2023-02-15T04:54:39;-1.50;99.90
31309;DHT22;17936;52.446;10.840;2023-02-15T04:57:05;-1.30;99.90
31309;DHT22;17936;52.446;10.840;2023-02-15T04:59:31;-1.70;99.90
31309;DHT22;17936;52.446;10.840;2023-02-15T05:01:57;-1.60;99.90
31309;DHT22;17936;52.446;10.840;2023-02-15T05:04:23;-1.90;99.90
31309;DHT22;17936;52.446;10.840;2023-02-15T05:06:48;-1.80;99.90
31309;DHT22;17936;52.446;10.840;2023-02-15T05:09:14;-1.80;99.90
31309;DHT22;17936;52.446;10.840;2023-02-15T05:11:40;-1.70;99.90
31309;DHT22;17936;52.446;10.840;2023-02-15T05:14:05;-1.80;99.90
31309;DHT22;17936;52.446;10.840;2023-02-15T05:16:31;-1.60;99.90
31309;DHT22;17936;52.446;10.840;2023-02-15T05:18:57;-1.50;99.90
31309;DHT22;17936;52.446;10.840;2023-02-15T05:21:22;-1.80;99.90
31309;DHT22;17936;52.446;10.840;2023-02-15T05:23:48;-1.70;99.90
31309;DHT22;17936;52.446;10.840;2023-02-15T05:26:18;-1.60;99.90
31309;DHT22;17936;52.446;10.840;2023-02-15T05:29:03;-1.90;99.90
31309;DHT22;17936;52.446;10.840;2023-02-15T05:31:28;-1.70;99.90
31309;DHT22;17936;52.446;10.840;2023-02-15T05:33:54;-1.90;99.90
31309;DHT22;17936;52.446;10.840;2023-02-15T05:36:19;-1.90;99.90
31309;DHT22;17936;52.446;10.840;2023-02-15T05:38:45;-1.90;99.90
31309;DHT22;17936;52.446;10.840;2023-02-15T05:41:11;-2.00;99.90
31309;DHT22;17936;52.446;10.840;2023-02-15T05:43:37;-1.90;99.90
31309;DHT22;17936;52.446;10.840;2023-02-15T05:46:04;-1.90;99.90
31309;DHT22;17936;52.446;10.840;2023-02-15T05:48:30;-1.90;99.90
31309;DHT22;17936;52.446;10.840;2023-02-15T05:51:10;-2.10;99.90
31309;DHT22;17936;52.446;10.840;2023-02-15T05:53:38;-2.00;99.90
31309;DHT22;17936;52.446;10.840;2023-02-15T05:56:05;-2.10;99.90
31309;DHT22;17936;52.446;10.840;2023-02-15T05:58:34;-1.90;99.90
31309;DHT22;17936;52.446;10.840;2023-02-15T06:01:14;-1.70;99.90
31309;DHT22;17936;52.446;10.840;2023-02-15T06:03:40;-2.20;99.90
31309;DHT22;17936;52.446;10.840;2023-02-15T06:06:06;-2.00;99.90
31309;DHT22;17936;52.446;10.840;2023-02-15T06:08:33;-1.60;99.90
31309;DHT22;17936;52.446;10.840;2023-02-15T06:10:59;-1.80;99.90
31309;DHT22;17936;52.446;10.840;2023-02-15T06:13:24;-1.70;99.90
31309;DHT22;17936;52.446;10.840;2023-02-15T06:15:50;-1.60;99.90
31309;DHT22;17936;52.446;10.840;2023-02-15T06:18:15;-1.90;99.90
31309;DHT22;17936;52.446;10.840;2023-02-15T06:20:41;-2.00;99.90
31309;DHT22;17936;52.446;10.840;2023-02-15T06:23:06;-2.20;99.90
31309;DHT22;17936;52.446;10.840;2023-02-15T06:25:32;-1.90;99.90
31309;DHT22;17936;52.446;10.840;2023-02-15T06:27:58;-2.00;99.90
31309;DHT22;17936;52.446;10.840;2023-02-15T06:30:23;-1.90;99.90
31309;DHT22;17936;52.446;10.840;2023-02-15T06:32:49;-2.20;99.90
31309;DHT22;17936;52.446;10.840;2023-02-15T06:35:14;-2.10;99.90
31309;DHT22;17936;52.446;10.840;2023-02-15T06:37:40;-1.80;99.90
31309;DHT22;17936;52.446;10.840;2023-02-15T06:40:06;-1.80;99.90
31309;DHT22;17936;52.446;10.840;2023-02-15T06:42:32;-1.90;99.90
31309;DHT22;17936;52.446;10.840;2023-02-15T06:44:57;-2.10;99.90
31309;DHT22;17936;52.446;10.840;2023-02-15T06:47:24;-2.20;99.90
31309;DHT22;17936;52.446;10.840;2023-02-15T06:49:49;-2.30;99.90
31309;DHT22;17936;52.446;10.840;2023-02-15T06:52:15;-2.10;99.90
31309;DHT22;17936;52.446;10.840;2023-02-15T06:54:41;-2.00;99.90
31309;DHT22;17936;52.446;10.840;2023-02-15T06:57:06;-2.20;99.90
31309;DHT22;17936;52.446;10.840;2023-02-15T06:59:32;-2.30;99.90
31309;DHT22;17936;52.446;10.840;2023-02-15T07:01:57;-2.20;99.90
31309;DHT22;17936;52.446;10.840;2023-02-15T07:04:23;-2.30;99.90
31309;DHT22;17936;52.446;10.840;2023-02-15T07:06:49;-2.40;99.90
31309;DHT22;17936;52.446;10.840;2023-02-15T07:09:15;-2.20;99.90
31309;DHT22;17936;52.446;10.840;2023-02-15T07:11:41;-2.20;99.90
31309;DHT22;17936;52.446;10.840;2023-02-15T07:14:25;-2.30;99.90
31309;DHT22;17936;52.446;10.840;2023-02-15T07:16:51;-2.50;99.90
31309;DHT22;17936;52.446;10.840;2023-02-15T07:19:16;-2.40;99.90
31309;DHT22;17936;52.446;10.840;2023-02-15T07:21:42;-2.30;99.90
31309;DHT22;17936;52.446;10.840;2023-02-15T07:24:07;-2.30;99.90
31309;DHT22;17936;52.446;10.840;2023-02-15T07:26:33;-2.30;99.90
31309;DHT22;17936;52.446;10.840;2023-02-15T07:28:58;-2.20;99.90
31309;DHT22;17936;52.446;10.840;2023-02-15T07:31:24;-2.40;99.90
31309;DHT22;17936;52.446;10.840;2023-02-15T07:33:50;-2.30;99.90
31309;DHT22;17936;52.446;10.840;2023-02-15T07:36:15;-2.30;99.90
31309;DHT22;17936;52.446;10.840;2023-02-15T07:38:41;-2.20;99.90
31309;DHT22;17936;52.446;10.840;2023-02-15T07:41:12;-2.30;99.90
31309;DHT22;17936;52.446;10.840;2023-02-15T07:43:40;-2.30;99.90
31309;DHT22;17936;52.446;10.840;2023-02-15T07:46:08;-2.00;99.90
31309;DHT22;17936;52.446;10.840;2023-02-15T07:48:35;-2.20;99.90
31309;DHT22;17936;52.446;10.840;2023-02-15T07:51:05;-2.20;99.90
31309;DHT22;17936;52.446;10.840;2023-02-15T07:53:31;-2.10;99.90
31309;DHT22;17936;52.446;10.840;2023-02-15T07:56:01;-2.10;99.90
31309;DHT22;17936;52.446;10.840;2023-02-15T07:58:27;-2.10;99.90
31309;DHT22;17936;52.446;10.840;2023-02-15T08:01:14;-1.50;99.90
31309;DHT22;17936;52.446;10.840;2023-02-15T08:03:40;-1.40;99.90
31309;DHT22;17936;52.446;10.840;2023-02-15T08:06:06;-1.40;99.90
31309;DHT22;17936;52.446;10.840;2023-02-15T08:08:34;-1.30;99.90
31309;DHT22;17936;52.446;10.840;2023-02-15T08:11:23;-1.30;99.90
31309;DHT22;17936;52.446;10.840;2023-02-15T08:14:09;-0.80;99.90
31309;DHT22;17936;52.446;10.840;2023-02-15T08:19:17;-0.40;99.90
31309;DHT22;17936;52.446;10.840;2023-02-15T08:21:45;-0.50;99.90
31309;DHT22;17936;52.446;10.840;2023-02-15T08:24:12;-0.30;99.90
31309;DHT22;17936;52.446;10.840;2023-02-15T08:26:39;-0.50;99.90
31309;DHT22;17936;52.446;10.840;2023-02-15T08:29:05;0.00;99.90
31309;DHT22;17936;52.446;10.840;2023-02-15T08:31:32;-0.70;99.90
31309;DHT22;17936;52.446;10.840;2023-02-15T08:33:58;-0.40;99.90
31309;DHT22;17936;52.446;10.840;2023-02-15T08:36:26;-0.10;99.90
31309;DHT22;17936;52.446;10.840;2023-02-15T08:38:52;0.20;99.90
31309;DHT22;17936;52.446;10.840;2023-02-15T08:41:27;0.20;99.90
31309;DHT22;17936;52.446;10.840;2023-02-15T08:43:54;-0.20;99.90
31309;DHT22;17936;52.446;10.840;2023-02-15T08:46:24;-0.40;99.90
31309;DHT22;17936;52.446;10.840;2023-02-15T08:48:50;-0.10;99.90
31309;DHT22;17936;52.446;10.840;2023-02-15T08:51:18;0.00;99.90
31309;DHT22;17936;52.446;10.840;2023-02-15T08:53:47;-0.20;99.90
31309;DHT22;17936;52.446;10.840;2023-02-15T08:56:17;0.00;99.90
31309;DHT22;17936;52.446;10.840;2023-02-15T08:58:43;0.00;99.90
31309;DHT22;17936;52.446;10.840;2023-02-15T09:01:13;0.20;99.90
31309;DHT22;17936;52.446;10.840;2023-02-15T09:03:39;0.40;99.90
31309;DHT22;17936;52.446;10.840;2023-02-15T09:06:06;0.30;99.90
31309;DHT22;17936;52.446;10.840;2023-02-15T09:08:32;0.70;99.90
31309;DHT22;17936;52.446;10.840;2023-02-15T09:11:09;0.10;99.90
31309;DHT22;17936;52.446;10.840;2023-02-15T09:13:35;0.30;99.90
31309;DHT22;17936;52.446;10.840;2023-02-15T09:16:02;0.30;99.90
31309;DHT22;17936;52.446;10.840;2023-02-15T09:18:30;0.70;99.90
31309;DHT22;17936;52.446;10.840;2023-02-15T09:20:56;0.40;99.90
31309;DHT22;17936;52.446;10.840;2023-02-15T09:23:22;0.00;99.90
31309;DHT22;17936;52.446;10.840;2023-02-15T09:25:47;0.30;99.90
31309;DHT22;17936;52.446;10.840;2023-02-15T09:28:12;0.40;99.90
31309;DHT22;17936;52.446;10.840;2023-02-15T09:30:38;0.20;99.90
31309;DHT22;17936;52.446;10.840;2023-02-15T09:33:04;0.40;99.90
31309;DHT22;17936;52.446;10.840;2023-02-15T09:35:29;0.10;99.90
31309;DHT22;17936;52.446;10.840;2023-02-15T09:37:55;0.50;99.90
31309;DHT22;17936;52.446;10.840;2023-02-15T09:40:20;0.90;99.90
31309;DHT22;17936;52.446;10.840;2023-02-15T09:45:26;1.60;99.90
31309;DHT22;17936;52.446;10.840;2023-02-15T09:48:18;1.80;99.90
31309;DHT22;17936;52.446;10.840;2023-02-15T09:51:23;1.40;99.90
31309;DHT22;17936;52.446;10.840;2023-02-15T09:54:30;1.90;99.90
31309;DHT22;17936;52.446;10.840;2023-02-15T09:57:03;2.20;99.90
31309;DHT22;17936;52.446;10.840;2023-02-15T10:03:13;2.50;99.90
31309;DHT22;17936;52.446;10.840;2023-02-15T10:06:13;2.40;99.90
31309;DHT22;17936;52.446;10.840;2023-02-15T10:11:56;2.20;99.90
31309;DHT22;17936;52.446;10.840;2023-02-15T10:27:22;3.80;99.90
31309;DHT22;17936;52.446;10.840;2023-02-15T10:29:58;3.70;99.90
31309;DHT22;17936;52.446;10.840;2023-02-15T10:32:28;3.80;99.90
31309;DHT22;17936;52.446;10.840;2023-02-15T10:41:13;3.80;99.90
31309;DHT22;17936;52.446;10.840;2023-02-15T10:54:48;3.40;99.90
31309;DHT22;17936;52.446;10.840;2023-02-15T11:00:20;3.80;99.90
31309;DHT22;17936;52.446;10.840;2023-02-15T11:08:15;3.90;99.90
31309;DHT22;17936;52.446;10.840;2023-02-15T11:10:52;4.00;99.90
31309;DHT22;17936;52.446;10.840;2023-02-15T11:13:21;4.20;99.90
31309;DHT22;17936;52.446;10.840;2023-02-15T11:16:01;4.40;99.90
31309;DHT22;17936;52.446;10.840;2023-02-15T11:23:30;5.10;99.90
31309;DHT22;17936;52.446;10.840;2023-02-15T11:26:02;5.40;99.90
31309;DHT22;17936;52.446;10.840;2023-02-15T11:28:36;5.20;99.90
31309;DHT22;17936;52.446;10.840;2023-02-15T11:31:20;5.50;99.90
31309;DHT22;17936;52.446;10.840;2023-02-15T11:33:48;5.70;99.90
31309;DHT22;17936;52.446;10.840;2023-02-15T11:36:32;5.80;99.90
31309;DHT22;17936;52.446;10.840;2023-02-15T11:39:02;6.10;99.90
31309;DHT22;17936;52.446;10.840;2023-02-15T11:41:33;6.00;99.90
31309;DHT22;17936;52.446;10.840;2023-02-15T11:44:07;6.30;99.90
31309;DHT22;17936;52.446;10.840;2023-02-15T11:46:34;6.50;99.90
31309;DHT22;17936;52.446;10.840;2023-02-15T11:48:59;6.30;99.90
31309;DHT22;17936;52.446;10.840;2023-02-15T11:51:25;6.60;99.90
31309;DHT22;17936;52.446;10.840;2023-02-15T11:53:54;6.50;99.90
31309;DHT22;17936;52.446;10.840;2023-02-15T11:56:24;6.40;99.90
31309;DHT22;17936;52.446;10.840;2023-02-15T11:58:58;6.90;99.90
31309;DHT22;17936;52.446;10.840;2023-02-15T12:04:16;7.10;99.90
31309;DHT22;17936;52.446;10.840;2023-02-15T12:06:51;7.10;99.90
31309;DHT22;17936;52.446;10.840;2023-02-15T12:09:46;7.50;99.90
31309;DHT22;17936;52.446;10.840;2023-02-15T12:12:24;7.70;99.90
31309;DHT22;17936;52.446;10.840;2023-02-15T12:14:55;7.60;99.90
31309;DHT22;17936;52.446;10.840;2023-02-15T12:17:24;6.80;99.90
31309;DHT22;17936;52.446;10.840;2023-02-15T12:19:52;6.80;99.90
31309;DHT22;17936;52.446;10.840;2023-02-15T12:22:22;7.20;99.90
31309;DHT22;17936;52.446;10.840;2023-02-15T12:24:49;7.80;99.90
31309;DHT22;17936;52.446;10.840;2023-02-15T12:27:19;7.40;42.50
31309;DHT22;17936;52.446;10.840;2023-02-15T12:29:52;7.50;58.10
31309;DHT22;17936;52.446;10.840;2023-02-15T12:32:30;7.90;1.00
31309;DHT22;17936;52.446;10.840;2023-02-15T12:35:08;8.00;99.90
31309;DHT22;17936;52.446;10.840;2023-02-15T12:37:35;8.40;99.90
31309;DHT22;17936;52.446;10.840;2023-02-15T12:40:19;8.70;99.90
31309;DHT22;17936;52.446;10.840;2023-02-15T12:42:45;9.10;99.90
31309;DHT22;17936;52.446;10.840;2023-02-15T12:45:23;8.60;99.90
31309;DHT22;17936;52.446;10.840;2023-02-15T12:48:15;8.60;99.90
31309;DHT22;17936;52.446;10.840;2023-02-15T12:50:44;8.80;99.90
31309;DHT22;17936;52.446;10.840;2023-02-15T12:53:19;9.20;99.90
31309;DHT22;17936;52.446;10.840;2023-02-15T12:55:56;9.20;99.90
31309;DHT22;17936;52.446;10.840;2023-02-15T12:58:29;9.00;99.90
31309;DHT22;17936;52.446;10.840;2023-02-15T13:01:09;9.80;99.90
31309;DHT22;17936;52.446;10.840;2023-02-15T13:03:55;9.80;99.90
31309;DHT22;17936;52.446;10.840;2023-02-15T13:06:21;9.30;99.90
31309;DHT22;17936;52.446;10.840;2023-02-15T13:08:52;10.00;99.90
31309;DHT22;17936;52.446;10.840;2023-02-15T13:11:31;10.30;99.90
31309;DHT22;17936;52.446;10.840;2023-02-15T13:14:03;10.70;99.90
31309;DHT22;17936;52.446;10.840;2023-02-15T13:16:34;10.40;99.90
31309;DHT22;17936;52.446;10.840;2023-02-15T13:19:33;11.20;99.90
31309;DHT22;17936;52.446;10.840;2023-02-15T13:22:02;11.40;99.90
31309;DHT22;17936;52.446;10.840;2023-02-15T13:24:35;11.20;99.90
31309;DHT22;17936;52.446;10.840;2023-02-15T13:27:03;11.40;99.90
31309;DHT22;17936;52.446;10.840;2023-02-15T13:29:31;11.80;99.90
31309;DHT22;17936;52.446;10.840;2023-02-15T13:34:46;11.40;99.90
31309;DHT22;17936;52.446;10.840;2023-02-15T13:37:20;11.10;99.90
31309;DHT22;17936;52.446;10.840;2023-02-15T13:40:15;11.30;99.90
31309;DHT22;17936;52.446;10.840;2023-02-15T13:45:29;11.00;99.90
31309;DHT22;17936;52.446;10.840;2023-02-15T13:48:39;11.10;99.90
31309;DHT22;17936;52.446;10.840;2023-02-15T13:51:21;10.80;99.90
31309;DHT22;17936;52.446;10.840;2023-02-15T14:00:38;11.10;99.90
31309;DHT22;17936;52.446;10.840;2023-02-15T14:03:30;10.80;99.90
31309;DHT22;17936;52.446;10.840;2023-02-15T14:11:55;10.80;99.90
31309;DHT22;17936;52.446;10.840;2023-02-15T14:20:51;10.00;99.90
31309;DHT22;17936;52.446;10.840;2023-02-15T14:26:12;10.90;99.90
31309;DHT22;17936;52.446;10.840;2023-02-15T14:31:13;10.60;99.90
31309;DHT22;17936;52.446;10.840;2023-02-15T14:33:43;10.80;99.90
31309;DHT22;17936;52.446;10.840;2023-02-15T14:36:16;10.80;99.90
31309;DHT22;17936;52.446;10.840;2023-02-15T14:38:59;10.90;99.90
31309;DHT22;17936;52.446;10.840;2023-02-15T14:44:31;10.50;99.90
31309;DHT22;17936;52.446;10.840;2023-02-15T14:47:16;10.60;99.90
31309;DHT22;17936;52.446;10.840;2023-02-15T14:49:44;10.70;99.90
31309;DHT22;17936;52.446;10.840;2023-02-15T14:52:11;10.80;99.90
31309;DHT22;17936;52.446;10.840;2023-02-15T15:05:08;10.50;99.90
31309;DHT22;17936;52.446;10.840;2023-02-15T15:07:45;10.40;99.90
31309;DHT22;17936;52.446;10.840;2023-02-15T15:12:44;10.00;99.90
31309;DHT22;17936;52.446;10.840;2023-02-15T15:17:53;9.90;99.90
31309;DHT22;17936;52.446;10.840;2023-02-15T15:25:59;9.20;99.90
31309;DHT22;17936;52.446;10.840;2023-02-15T15:42:36;9.40;99.90
31309;DHT22;17936;52.446;10.840;2023-02-15T15:45:30;9.30;99.90
31309;DHT22;17936;52.446;10.840;2023-02-15T15:51:23;9.00;99.90
31309;DHT22;17936;52.446;10.840;2023-02-15T15:53:51;9.70;99.90
31309;DHT22;17936;52.446;10.840;2023-02-15T15:56:25;9.00;99.90
31309;DHT22;17936;52.446;10.840;2023-02-15T15:58:59;9.00;99.90
31309;DHT22;17936;52.446;10.840;2023-02-15T16:01:30;9.10;99.90
31309;DHT22;17936;52.446;10.840;2023-02-15T16:03:58;9.20;99.90
31309;DHT22;17936;52.446;10.840;2023-02-15T16:06:35;9.40;99.90
31309;DHT22;17936;52.446;10.840;2023-02-15T16:09:21;9.40;99.90
31309;DHT22;17936;52.446;10.840;2023-02-15T16:11:58;9.60;99.90
31309;DHT22;17936;52.446;10.840;2023-02-15T16:14:37;9.50;99.90
31309;DHT22;17936;52.446;10.840;2023-02-15T16:17:08;9.40;99.90
31309;DHT22;17936;52.446;10.840;2023-02-15T16:19:41;9.10;99.90
31309;DHT22;17936;52.446;10.840;2023-02-15T16:22:16;9.30;99.90
31309;DHT22;17936;52.446;10.840;2023-02-15T16:27:54;8.80;99.90
31309;DHT22;17936;52.446;10.840;2023-02-15T16:32:45;8.40;99.90
31309;DHT22;17936;52.446;10.840;2023-02-15T16:35:19;8.50;99.90
31309;DHT22;17936;52.446;10.840;2023-02-15T16:37:45;8.30;99.90
31309;DHT22;17936;52.446;10.840;2023-02-15T16:41:07;8.20;99.90
31309;DHT22;17936;52.446;10.840;2023-02-15T16:43:29;8.20;99.90
31309;DHT22;17936;52.446;10.840;2023-02-15T16:46:10;8.10;99.90
31309;DHT22;17936;52.446;10.840;2023-02-15T16:48:40;7.90;99.90
31309;DHT22;17936;52.446;10.840;2023-02-15T16:51:06;7.90;99.90
31309;DHT22;17936;52.446;10.840;2023-02-15T16:53:32;7.50;99.90
31309;DHT22;17936;52.446;10.840;2023-02-15T16:56:00;7.70;99.90
31309;DHT22;17936;52.446;10.840;2023-02-15T16:58:36;7.40;99.90
31309;DHT22;17936;52.446;10.840;2023-02-15T17:01:06;7.60;99.90
31309;DHT22;17936;52.446;10.840;2023-02-15T17:03:32;7.70;99.90
31309;DHT22;17936;52.446;10.840;2023-02-15T17:06:00;7.40;99.90
31309;DHT22;17936;52.446;10.840;2023-02-15T17:08:43;7.70;99.90
31309;DHT22;17936;52.446;10.840;2023-02-15T17:11:20;7.60;99.90
31309;DHT22;17936;52.446;10.840;2023-02-15T17:16:35;7.50;99.90
31309;DHT22;17936;52.446;10.840;2023-02-15T17:19:07;7.30;99.90
31309;DHT22;17936;52.446;10.840;2023-02-15T17:21:42;6.80;99.90
31309;DHT22;17936;52.446;10.840;2023-02-15T17:24:21;6.70;99.90
31309;DHT22;17936;52.446;10.840;2023-02-15T17:26:54;6.10;99.90
31309;DHT22;17936;52.446;10.840;2023-02-15T17:29:51;6.10;99.90
31309;DHT22;17936;52.446;10.840;2023-02-15T17:32:23;5.70;99.90
31309;DHT22;17936;52.446;10.840;2023-02-15T17:40:18;5.40;99.90
31309;DHT22;17936;52.446;10.840;2023-02-15T17:42:44;5.20;99.90
31309;DHT22;17936;52.446;10.840;2023-02-15T17:45:09;5.00;99.90
31309;DHT22;17936;52.446;10.840;2023-02-15T17:47:35;5.20;99.90
31309;DHT22;17936;52.446;10.840;2023-02-15T17:50:03;5.40;99.90
31309;DHT22;17936;52.446;10.840;2023-02-15T17:52:30;5.70;99.90
31309;DHT22;17936;52.446;10.840;2023-02-15T17:54:56;5.90;99.90
31309;DHT22;17936;52.446;10.840;2023-02-15T17:57:42;5.90;99.90
31309;DHT22;17936;52.446;10.840;2023-02-15T18:00:12;5.90;99.90
31309;DHT22;17936;52.446;10.840;2023-02-15T18:02:57;5.90;99.90
31309;DHT22;17936;52.446;10.840;2023-02-15T18:05:41;5.70;99.90
31309;DHT22;17936;52.446;10.840;2023-02-15T18:08:27;5.40;99.90
31309;DHT22;17936;52.446;10.840;2023-02-15T18:11:11;5.60;99.90
31309;DHT22;17936;52.446;10.840;2023-02-15T18:13:56;5.60;99.90
31309;DHT22;17936;52.446;10.840;2023-02-15T18:16:30;5.60;99.90
31309;DHT22;17936;52.446;10.840;2023-02-15T18:18:57;5.60;99.90
31309;DHT22;17936;52.446;10.840;2023-02-15T18:21:23;5.70;99.90
31309;DHT22;17936;52.446;10.840;2023-02-15T18:23:49;5.40;99.90
31309;DHT22;17936;52.446;10.840;2023-02-15T18:26:22;5.40;99.90
31309;DHT22;17936;52.446;10.840;2023-02-15T18:28:48;5.50;99.90
31309;DHT22;17936;52.446;10.840;2023-02-15T18:31:14;5.70;99.90